sensor_id;sensor_type;location;lat;lon;timestamp;pressure;altitude;pressure_sealevel;temperature;humidity
69971;BME280;57301;50.328;8.542;2023-04-26T00:01:53;98629.56;;;0.37;91.63
69971;BME280;57301;50.328;8.542;2023-04-26T00:04:19;98630.31;;;0.39;92.00
69971;BME280;57301;50.328;8.542;2023-04-26T00:06:46;98633.25;;;0.49;90.71
69971;BME280;57301;50.328;8.542;2023-04-26T00:09:14;98626.31;;;0.48;91.26
69971;BME280;57301;50.328;8.542;2023-04-26T00:11:41;98632.41;;;0.48;91.34
69971;BME280;57301;50.328;8.542;2023-04-26T00:14:07;98628.78;;;0.35;91.30
69971;BME280;57301;50.328;8.542;2023-04-26T00:16:34;98641.31;;;0.30;91.97
69971;BME280;57301;50.328;8.542;2023-04-26T00:19:01;98637.00;;;0.29;91.77
69971;BME280;57301;50.328;8.542;2023-04-26T00:21:27;98639.47;;;0.16;91.52
69971;BME280;57301;50.328;8.542;2023-04-26T00:23:54;98636.19;;;0.13;91.77
69971;BME280;57301;50.328;8.542;2023-04-26T00:26:21;98645.72;;;0.14;92.52
69971;BME280;57301;50.328;8.542;2023-04-26T00:28:47;98642.09;;;0.16;92.74
69971;BME280;57301;50.328;8.542;2023-04-26T00:31:17;98642.09;;;0.16;92.33
69971;BME280;57301;50.328;8.542;2023-04-26T00:33:44;98639.81;;;0.10;92.60
69971;BME280;57301;50.328;8.542;2023-04-26T00:36:11;98640.56;;;0.12;92.40
69971;BME280;57301;50.328;8.542;2023-04-26T00:38:38;98644.44;;;0.05;91.96
69971;BME280;57301;50.328;8.542;2023-04-26T00:41:04;98643.50;;;0.06;92.49
69971;BME280;57301;50.328;8.542;2023-04-26T00:43:31;98640.97;;;0.05;92.78
69971;BME280;57301;50.328;8.542;2023-04-26T00:45:57;98641.41;;;-0.03;93.21
69971;BME280;57301;50.328;8.542;2023-04-26T00:48:24;98634.06;;;-0.12;92.60
69971;BME280;57301;50.328;8.542;2023-04-26T00:50:51;98641.56;;;-0.22;93.20
69971;BME280;57301;50.328;8.542;2023-04-26T00:53:18;98635.81;;;-0.29;93.43
69971;BME280;57301;50.328;8.542;2023-04-26T00:55:44;98638.53;;;-0.30;93.71
69971;BME280;57301;50.328;8.542;2023-04-26T00:58:11;98635.56;;;-0.24;93.89
69971;BME280;57301;50.328;8.542;2023-04-26T01:00:37;98636.34;;;-0.22;94.20
69971;BME280;57301;50.328;8.542;2023-04-26T01:03:04;98638.53;;;-0.30;94.00
69971;BME280;57301;50.328;8.542;2023-04-26T01:05:31;98634.47;;;-0.36;93.47
69971;BME280;57301;50.328;8.542;2023-04-26T01:07:57;98637.13;;;-0.37;94.34
69971;BME280;57301;50.328;8.542;2023-04-26T01:10:25;98639.19;;;-0.42;94.44
69971;BME280;57301;50.328;8.542;2023-04-26T01:12:53;98633.94;;;-0.42;94.36
69971;BME280;57301;50.328;8.542;2023-04-26T01:15:20;98637.47;;;-0.43;94.62
69971;BME280;57301;50.328;8.542;2023-04-26T01:17:46;98627.25;;;-0.48;94.16
69971;BME280;57301;50.328;8.542;2023-04-26T01:20:13;98621.31;;;-0.51;94.41
69971;BME280;57301;50.328;8.542;2023-04-26T01:22:39;98628.56;;;-0.57;94.96
69971;BME280;57301;50.328;8.542;2023-04-26T01:25:10;98627.72;;;-0.57;95.26
69971;BME280;57301;50.328;8.542;2023-04-26T01:27:37;98626.66;;;-0.53;95.33
69971;BME280;57301;50.328;8.542;2023-04-26T01:30:04;98624.47;;;-0.45;94.84
69971;BME280;57301;50.328;8.542;2023-04-26T01:32:31;98626.47;;;-0.50;94.73
69971;BME280;57301;50.328;8.542;2023-04-26T01:34:58;98623.34;;;-0.57;94.39
69971;BME280;57301;50.328;8.542;2023-04-26T01:37:25;98627.91;;;-0.60;94.70
69971;BME280;57301;50.328;8.542;2023-04-26T01:39:52;98624.50;;;-0.62;94.83
69971;BME280;57301;50.328;8.542;2023-04-26T01:42:18;98626.53;;;-0.67;95.45
69971;BME280;57301;50.328;8.542;2023-04-26T01:44:45;98630.47;;;-0.76;95.19
69971;BME280;57301;50.328;8.542;2023-04-26T01:47:11;98625.16;;;-0.74;95.86
69971;BME280;57301;50.328;8.542;2023-04-26T01:49:38;98625.44;;;-0.63;95.49
69971;BME280;57301;50.328;8.542;2023-04-26T01:52:04;98630.53;;;-0.60;94.92
69971;BME280;57301;50.328;8.542;2023-04-26T01:54:31;98640.38;;;-0.65;95.60
69971;BME280;57301;50.328;8.542;2023-04-26T01:56:57;98636.63;;;-0.77;95.35
69971;BME280;57301;50.328;8.542;2023-04-26T01:59:24;98637.97;;;-0.86;95.29
69971;BME280;57301;50.328;8.542;2023-04-26T02:01:50;98639.88;;;-0.89;95.91
69971;BME280;57301;50.328;8.542;2023-04-26T02:04:20;98641.97;;;-0.96;96.21
69971;BME280;57301;50.328;8.542;2023-04-26T02:06:46;98646.50;;;-0.82;95.73
69971;BME280;57301;50.328;8.542;2023-04-26T02:09:12;98634.94;;;-0.78;96.25
69971;BME280;57301;50.328;8.542;2023-04-26T02:11:39;98635.25;;;-0.84;95.93
69971;BME280;57301;50.328;8.542;2023-04-26T02:14:06;98640.91;;;-0.92;96.27
69971;BME280;57301;50.328;8.542;2023-04-26T02:16:32;98647.03;;;-0.93;97.10
69971;BME280;57301;50.328;8.542;2023-04-26T02:18:59;98640.81;;;-0.90;96.60
69971;BME280;57301;50.328;8.542;2023-04-26T02:21:26;98640.91;;;-0.92;96.71
69971;BME280;57301;50.328;8.542;2023-04-26T02:23:53;98637.97;;;-1.03;96.46
69971;BME280;57301;50.328;8.542;2023-04-26T02:26:20;98650.97;;;-1.01;96.38
69971;BME280;57301;50.328;8.542;2023-04-26T02:28:46;98643.59;;;-1.11;96.94
69971;BME280;57301;50.328;8.542;2023-04-26T02:31:13;98644.50;;;-1.12;97.13
69971;BME280;57301;50.328;8.542;2023-04-26T02:33:40;98652.66;;;-1.18;97.43
69971;BME280;57301;50.328;8.542;2023-04-26T02:36:06;98644.50;;;-1.12;97.49
69971;BME280;57301;50.328;8.542;2023-04-26T02:38:33;98639.44;;;-1.15;97.61
69971;BME280;57301;50.328;8.542;2023-04-26T02:41:02;98647.44;;;-1.18;97.51
69971;BME280;57301;50.328;8.542;2023-04-26T02:43:29;98645.44;;;-1.13;97.81
69971;BME280;57301;50.328;8.542;2023-04-26T02:45:55;98650.75;;;-1.31;97.61
69971;BME280;57301;50.328;8.542;2023-04-26T02:48:24;98643.75;;;-1.14;99.00
69971;BME280;57301;50.328;8.542;2023-04-26T02:50:50;98642.44;;;-1.05;98.57
69971;BME280;57301;50.328;8.542;2023-04-26T02:53:17;98641.75;;;-1.09;98.59
69971;BME280;57301;50.328;8.542;2023-04-26T02:55:44;98635.69;;;-1.09;98.29
69971;BME280;57301;50.328;8.542;2023-04-26T02:58:10;98637.75;;;-1.16;98.40
69971;BME280;57301;50.328;8.542;2023-04-26T03:00:36;98645.06;;;-1.22;97.97
69971;BME280;57301;50.328;8.542;2023-04-26T03:03:03;98645.97;;;-1.23;97.77
69971;BME280;57301;50.328;8.542;2023-04-26T03:05:30;98636.66;;;-1.12;98.29
69971;BME280;57301;50.328;8.542;2023-04-26T03:07:56;98636.22;;;-1.20;97.71
69971;BME280;57301;50.328;8.542;2023-04-26T03:10:23;98648.88;;;-1.29;98.37
69971;BME280;57301;50.328;8.542;2023-04-26T03:12:49;98634.97;;;-1.30;98.18
69971;BME280;57301;50.328;8.542;2023-04-26T03:15:16;98636.66;;;-1.29;98.73
69971;BME280;57301;50.328;8.542;2023-04-26T03:17:42;98636.66;;;-1.29;98.59
69971;BME280;57301;50.328;8.542;2023-04-26T03:20:09;98634.28;;;-1.33;97.96
69971;BME280;57301;50.328;8.542;2023-04-26T03:22:36;98626.97;;;-1.44;98.05
69971;BME280;57301;50.328;8.542;2023-04-26T03:25:03;98635.19;;;-1.52;98.58
69971;BME280;57301;50.328;8.542;2023-04-26T03:27:30;98628.56;;;-1.42;98.80
69971;BME280;57301;50.328;8.542;2023-04-26T03:29:57;98632.97;;;-1.42;98.15
69971;BME280;57301;50.328;8.542;2023-04-26T03:32:23;98628.13;;;-1.50;97.83
69971;BME280;57301;50.328;8.542;2023-04-26T03:34:50;98629.97;;;-1.52;98.28
69971;BME280;57301;50.328;8.542;2023-04-26T03:37:16;98634.72;;;-1.43;98.63
69971;BME280;57301;50.328;8.542;2023-04-26T03:39:43;98636.28;;;-1.39;99.19
69971;BME280;57301;50.328;8.542;2023-04-26T03:42:09;98637.13;;;-1.38;98.54
69971;BME280;57301;50.328;8.542;2023-04-26T03:44:36;98643.41;;;-1.42;98.29
69971;BME280;57301;50.328;8.542;2023-04-26T03:47:02;98645.56;;;-1.50;98.28
69971;BME280;57301;50.328;8.542;2023-04-26T03:49:30;98635.88;;;-1.48;98.34
69971;BME280;57301;50.328;8.542;2023-04-26T03:51:57;98633.34;;;-1.50;98.56
69971;BME280;57301;50.328;8.542;2023-04-26T03:54:23;98634.19;;;-1.49;97.92
69971;BME280;57301;50.328;8.542;2023-04-26T03:56:50;98640.56;;;-1.55;97.45
69971;BME280;57301;50.328;8.542;2023-04-26T03:59:17;98639.50;;;-1.51;97.82
69971;BME280;57301;50.328;8.542;2023-04-26T04:01:43;98633.88;;;-1.60;98.87
69971;BME280;57301;50.328;8.542;2023-04-26T04:04:10;98638.41;;;-1.64;99.20
69971;BME280;57301;50.328;8.542;2023-04-26T04:06:37;98633.94;;;-1.62;99.11
69971;BME280;57301;50.328;8.542;2023-04-26T04:09:03;98633.19;;;-1.64;99.39
69971;BME280;57301;50.328;8.542;2023-04-26T04:11:33;98634.66;;;-1.58;99.62
69971;BME280;57301;50.328;8.542;2023-04-26T04:13:59;98645.66;;;-1.52;98.67
69971;BME280;57301;50.328;8.542;2023-04-26T04:16:26;98634.41;;;-1.54;98.63
69971;BME280;57301;50.328;8.542;2023-04-26T04:18:53;98638.91;;;-1.39;98.98
69971;BME280;57301;50.328;8.542;2023-04-26T04:21:20;98645.06;;;-1.40;98.48
69971;BME280;57301;50.328;8.542;2023-04-26T04:23:46;98636.50;;;-1.43;98.28
69971;BME280;57301;50.328;8.542;2023-04-26T04:26:13;98649.16;;;-1.34;97.97
69971;BME280;57301;50.328;8.542;2023-04-26T04:28:39;98646.97;;;-1.26;98.38
69971;BME280;57301;50.328;8.542;2023-04-26T04:31:10;98647.06;;;-1.10;97.60
69971;BME280;57301;50.328;8.542;2023-04-26T04:33:38;98647.34;;;-0.99;96.82
69971;BME280;57301;50.328;8.542;2023-04-26T04:36:05;98646.19;;;-0.93;95.50
69971;BME280;57301;50.328;8.542;2023-04-26T04:38:32;98649.97;;;-0.99;94.67
69971;BME280;57301;50.328;8.542;2023-04-26T04:40:59;98655.38;;;-0.85;94.96
69971;BME280;57301;50.328;8.542;2023-04-26T04:43:25;98658.81;;;-0.84;94.40
69971;BME280;57301;50.328;8.542;2023-04-26T04:45:53;98664.09;;;-0.68;94.05
69971;BME280;57301;50.328;8.542;2023-04-26T04:48:19;98666.75;;;-0.35;93.16
69971;BME280;57301;50.328;8.542;2023-04-26T04:50:46;98669.41;;;-0.04;90.62
69971;BME280;57301;50.328;8.542;2023-04-26T04:53:13;98673.41;;;0.19;89.83
69971;BME280;57301;50.328;8.542;2023-04-26T04:55:39;98670.41;;;0.10;89.44
69971;BME280;57301;50.328;8.542;2023-04-26T04:58:06;98673.13;;;0.56;89.22
69971;BME280;57301;50.328;8.542;2023-04-26T05:00:32;98675.31;;;0.63;88.51
69971;BME280;57301;50.328;8.542;2023-04-26T05:02:59;98679.22;;;0.40;89.45
69971;BME280;57301;50.328;8.542;2023-04-26T05:05:26;98678.00;;;0.92;88.29
69971;BME280;57301;50.328;8.542;2023-04-26T05:07:52;98681.81;;;1.16;87.52
69971;BME280;57301;50.328;8.542;2023-04-26T05:10:19;98688.28;;;1.55;87.47
69971;BME280;57301;50.328;8.542;2023-04-26T05:12:45;98685.56;;;1.56;85.53
69971;BME280;57301;50.328;8.542;2023-04-26T05:15:12;98682.56;;;1.91;83.89
69971;BME280;57301;50.328;8.542;2023-04-26T05:17:40;98686.78;;;2.49;84.24
69971;BME280;57301;50.328;8.542;2023-04-26T05:20:07;98684.13;;;2.49;82.30
69971;BME280;57301;50.328;8.542;2023-04-26T05:22:34;98676.69;;;2.56;80.34
69971;BME280;57301;50.328;8.542;2023-04-26T05:25:02;98689.66;;;2.18;82.14
69971;BME280;57301;50.328;8.542;2023-04-26T05:27:30;98686.03;;;2.47;82.47
69971;BME280;57301;50.328;8.542;2023-04-26T05:29:59;98681.88;;;3.62;77.35
69971;BME280;57301;50.328;8.542;2023-04-26T05:32:26;98689.47;;;4.29;75.11
69971;BME280;57301;50.328;8.542;2023-04-26T05:34:56;98684.09;;;4.67;71.95
69971;BME280;57301;50.328;8.542;2023-04-26T05:37:22;98680.47;;;5.16;70.18
69971;BME280;57301;50.328;8.542;2023-04-26T05:39:49;98684.31;;;5.81;68.80
69971;BME280;57301;50.328;8.542;2023-04-26T05:42:16;98699.25;;;6.38;66.64
69971;BME280;57301;50.328;8.542;2023-04-26T05:44:43;98696.38;;;6.30;66.48
69971;BME280;57301;50.328;8.542;2023-04-26T05:47:09;98700.75;;;6.74;65.34
69971;BME280;57301;50.328;8.542;2023-04-26T05:49:36;98700.50;;;7.09;64.73
69971;BME280;57301;50.328;8.542;2023-04-26T05:52:02;98687.97;;;7.95;60.67
69971;BME280;57301;50.328;8.542;2023-04-26T05:54:29;98686.94;;;7.86;59.89
69971;BME280;57301;50.328;8.542;2023-04-26T05:56:55;98692.56;;;8.23;59.00
69971;BME280;57301;50.328;8.542;2023-04-26T05:59:24;98694.63;;;7.89;60.25
69971;BME280;57301;50.328;8.542;2023-04-26T06:01:51;98703.84;;;8.16;60.69
69971;BME280;57301;50.328;8.542;2023-04-26T06:04:17;98702.16;;;9.05;57.25
69971;BME280;57301;50.328;8.542;2023-04-26T06:06:44;98707.28;;;9.74;54.07
69971;BME280;57301;50.328;8.542;2023-04-26T06:09:11;98707.31;;;10.11;56.91
69971;BME280;57301;50.328;8.542;2023-04-26T06:11:38;98704.78;;;11.99;51.34
69971;BME280;57301;50.328;8.542;2023-04-26T06:14:04;98704.94;;;11.54;50.48
69971;BME280;57301;50.328;8.542;2023-04-26T06:16:34;98706.91;;;11.52;49.58
69971;BME280;57301;50.328;8.542;2023-04-26T06:19:00;98709.56;;;10.81;51.63
69971;BME280;57301;50.328;8.542;2023-04-26T06:21:27;98706.38;;;10.67;52.40
69971;BME280;57301;50.328;8.542;2023-04-26T06:23:53;98710.75;;;10.86;51.16
69971;BME280;57301;50.328;8.542;2023-04-26T06:26:20;98704.59;;;11.57;52.73
69971;BME280;57301;50.328;8.542;2023-04-26T06:28:47;98703.28;;;12.73;46.63
69971;BME280;57301;50.328;8.542;2023-04-26T06:31:14;98700.13;;;12.35;48.55
69971;BME280;57301;50.328;8.542;2023-04-26T06:33:40;98702.78;;;13.28;45.41
69971;BME280;57301;50.328;8.542;2023-04-26T06:36:10;98713.16;;;13.80;46.62
69971;BME280;57301;50.328;8.542;2023-04-26T06:38:37;98710.75;;;14.10;45.70
69971;BME280;57301;50.328;8.542;2023-04-26T06:41:03;98706.22;;;14.27;43.62
69971;BME280;57301;50.328;8.542;2023-04-26T06:43:30;98706.59;;;13.26;45.04
69971;BME280;57301;50.328;8.542;2023-04-26T06:45:56;98706.63;;;13.34;45.84
69971;BME280;57301;50.328;8.542;2023-04-26T06:48:23;98707.81;;;13.48;45.54
69971;BME280;57301;50.328;8.542;2023-04-26T06:50:50;98703.63;;;13.69;44.79
69971;BME280;57301;50.328;8.542;2023-04-26T06:53:16;98701.16;;;14.79;43.12
69971;BME280;57301;50.328;8.542;2023-04-26T06:55:43;98706.13;;;15.44;39.52
69971;BME280;57301;50.328;8.542;2023-04-26T06:58:11;98707.84;;;15.83;38.64
69971;BME280;57301;50.328;8.542;2023-04-26T07:00:37;98703.09;;;13.25;41.59
69971;BME280;57301;50.328;8.542;2023-04-26T07:03:04;98699.66;;;14.37;39.70
69971;BME280;57301;50.328;8.542;2023-04-26T07:05:31;98709.47;;;13.73;43.25
69971;BME280;57301;50.328;8.542;2023-04-26T07:07:57;98709.28;;;14.07;41.23
69971;BME280;57301;50.328;8.542;2023-04-26T07:10:24;98711.72;;;14.49;40.90
69971;BME280;57301;50.328;8.542;2023-04-26T07:12:53;98706.63;;;13.66;41.45
69971;BME280;57301;50.328;8.542;2023-04-26T07:15:19;98714.44;;;14.72;42.01
69971;BME280;57301;50.328;8.542;2023-04-26T07:17:46;98708.09;;;14.02;41.27
69971;BME280;57301;50.328;8.542;2023-04-26T07:20:12;98713.47;;;15.27;39.89
69971;BME280;57301;50.328;8.542;2023-04-26T07:22:45;98705.50;;;16.03;37.51
69971;BME280;57301;50.328;8.542;2023-04-26T07:25:12;98706.06;;;14.20;38.44
69971;BME280;57301;50.328;8.542;2023-04-26T07:27:38;98707.81;;;14.52;36.80
69971;BME280;57301;50.328;8.542;2023-04-26T07:30:05;98708.69;;;15.61;37.19
69971;BME280;57301;50.328;8.542;2023-04-26T07:32:32;98709.06;;;15.35;36.65
69971;BME280;57301;50.328;8.542;2023-04-26T07:34:59;98699.56;;;15.70;37.49
69971;BME280;57301;50.328;8.542;2023-04-26T07:37:25;98703.84;;;14.79;37.53
69971;BME280;57301;50.328;8.542;2023-04-26T07:39:52;98700.75;;;14.90;37.92
69971;BME280;57301;50.328;8.542;2023-04-26T07:42:18;98709.66;;;13.88;38.87
69971;BME280;57301;50.328;8.542;2023-04-26T07:44:47;98702.53;;;13.05;40.96
69971;BME280;57301;50.328;8.542;2023-04-26T07:47:13;98708.97;;;13.94;40.31
69971;BME280;57301;50.328;8.542;2023-04-26T07:49:40;98702.28;;;13.41;39.51
69971;BME280;57301;50.328;8.542;2023-04-26T07:52:07;98695.25;;;13.40;40.44
69971;BME280;57301;50.328;8.542;2023-04-26T07:54:34;98697.28;;;12.87;41.01
69971;BME280;57301;50.328;8.542;2023-04-26T07:57:01;98689.78;;;12.06;41.53
69971;BME280;57301;50.328;8.542;2023-04-26T07:59:27;98691.41;;;11.99;43.50
69971;BME280;57301;50.328;8.542;2023-04-26T08:01:54;98695.84;;;12.17;44.86
69971;BME280;57301;50.328;8.542;2023-04-26T08:04:29;98697.63;;;12.08;44.75
69971;BME280;57301;50.328;8.542;2023-04-26T08:06:58;98699.63;;;12.06;43.14
69971;BME280;57301;50.328;8.542;2023-04-26T08:09:25;98701.78;;;12.28;41.76
69971;BME280;57301;50.328;8.542;2023-04-26T08:11:51;98709.34;;;12.83;40.75
69971;BME280;57301;50.328;8.542;2023-04-26T08:14:18;98703.34;;;12.89;41.70
69971;BME280;57301;50.328;8.542;2023-04-26T08:16:44;98703.38;;;13.06;41.53
69971;BME280;57301;50.328;8.542;2023-04-26T08:19:11;98705.22;;;13.13;41.87
69971;BME280;57301;50.328;8.542;2023-04-26T08:21:37;98698.03;;;13.14;40.86
69971;BME280;57301;50.328;8.542;2023-04-26T08:24:04;98694.13;;;12.84;40.99
69971;BME280;57301;50.328;8.542;2023-04-26T08:26:31;98704.44;;;13.37;42.26
69971;BME280;57301;50.328;8.542;2023-04-26T08:28:57;98698.59;;;13.66;39.01
69971;BME280;57301;50.328;8.542;2023-04-26T08:31:24;98710.75;;;13.12;39.49
69971;BME280;57301;50.328;8.542;2023-04-26T08:33:50;98700.50;;;12.15;43.25
69971;BME280;57301;50.328;8.542;2023-04-26T08:36:17;98709.44;;;11.36;42.34
69971;BME280;57301;50.328;8.542;2023-04-26T08:38:43;98720.56;;;11.31;42.97
69971;BME280;57301;50.328;8.542;2023-04-26T08:41:12;98708.72;;;12.21;42.77
69971;BME280;57301;50.328;8.542;2023-04-26T08:43:42;98707.16;;;12.36;41.11
69971;BME280;57301;50.328;8.542;2023-04-26T08:46:11;98705.50;;;11.66;43.50
69971;BME280;57301;50.328;8.542;2023-04-26T08:48:42;98695.16;;;12.15;40.60
69971;BME280;57301;50.328;8.542;2023-04-26T08:51:11;98692.97;;;12.44;40.10
69971;BME280;57301;50.328;8.542;2023-04-26T08:53:38;98702.22;;;12.16;41.09
69971;BME280;57301;50.328;8.542;2023-04-26T08:56:07;98695.16;;;12.15;41.13
69971;BME280;57301;50.328;8.542;2023-04-26T08:58:36;98706.13;;;12.29;41.30
69971;BME280;57301;50.328;8.542;2023-04-26T09:01:04;98697.41;;;12.27;39.50
69971;BME280;57301;50.328;8.542;2023-04-26T09:03:31;98691.00;;;12.20;39.33
69971;BME280;57301;50.328;8.542;2023-04-26T09:05:59;98691.69;;;12.56;39.01
69971;BME280;57301;50.328;8.542;2023-04-26T09:08:29;98693.50;;;12.48;39.25
69971;BME280;57301;50.328;8.542;2023-04-26T09:10:56;98682.00;;;12.63;39.34
69971;BME280;57301;50.328;8.542;2023-04-26T09:13:27;98683.38;;;12.33;40.51
69971;BME280;57301;50.328;8.542;2023-04-26T09:15:54;98686.47;;;12.13;38.98
69971;BME280;57301;50.328;8.542;2023-04-26T09:18:22;98684.34;;;12.16;40.20
69971;BME280;57301;50.328;8.542;2023-04-26T09:21:02;98676.56;;;12.05;41.00
69971;BME280;57301;50.328;8.542;2023-04-26T09:23:29;98682.13;;;12.12;40.72
69971;BME280;57301;50.328;8.542;2023-04-26T09:25:56;98685.47;;;12.14;40.89
69971;BME280;57301;50.328;8.542;2023-04-26T09:28:23;98687.84;;;11.91;40.95
69971;BME280;57301;50.328;8.542;2023-04-26T09:30:49;98685.41;;;12.40;40.93
69971;BME280;57301;50.328;8.542;2023-04-26T09:33:16;98689.66;;;12.50;39.39
69971;BME280;57301;50.328;8.542;2023-04-26T09:35:44;98686.50;;;12.55;40.47
69971;BME280;57301;50.328;8.542;2023-04-26T09:38:15;98681.34;;;12.27;39.86
69971;BME280;57301;50.328;8.542;2023-04-26T09:40:48;98676.22;;;12.34;40.74
69971;BME280;57301;50.328;8.542;2023-04-26T09:43:19;98680.16;;;12.56;39.26
69971;BME280;57301;50.328;8.542;2023-04-26T09:45:47;98677.81;;;12.61;39.58
69971;BME280;57301;50.328;8.542;2023-04-26T09:48:27;98674.38;;;12.85;39.17
69971;BME280;57301;50.328;8.542;2023-04-26T09:53:32;98672.91;;;12.99;38.76
69971;BME280;57301;50.328;8.542;2023-04-26T09:58:36;98669.44;;;11.88;37.74
69971;BME280;57301;50.328;8.542;2023-04-26T10:01:03;98670.69;;;12.01;39.38
69971;BME280;57301;50.328;8.542;2023-04-26T10:03:33;98670.97;;;11.90;39.71
69971;BME280;57301;50.328;8.542;2023-04-26T10:06:00;98673.03;;;11.35;39.10
69971;BME280;57301;50.328;8.542;2023-04-26T10:08:27;98669.75;;;12.10;40.11
69971;BME280;57301;50.328;8.542;2023-04-26T10:10:54;98675.28;;;13.18;41.56
69971;BME280;57301;50.328;8.542;2023-04-26T10:13:21;98668.56;;;13.06;39.33
69971;BME280;57301;50.328;8.542;2023-04-26T10:15:47;98665.38;;;13.18;36.87
69971;BME280;57301;50.328;8.542;2023-04-26T10:18:14;98662.69;;;12.86;37.50
69971;BME280;57301;50.328;8.542;2023-04-26T10:20:44;98665.69;;;12.91;37.62
69971;BME280;57301;50.328;8.542;2023-04-26T10:23:20;98665.22;;;12.96;37.84
69971;BME280;57301;50.328;8.542;2023-04-26T10:25:47;98668.41;;;13.15;38.06
69971;BME280;57301;50.328;8.542;2023-04-26T10:28:14;98663.03;;;12.83;36.35
69971;BME280;57301;50.328;8.542;2023-04-26T10:30:55;98660.19;;;12.93;38.51
69971;BME280;57301;50.328;8.542;2023-04-26T10:33:23;98662.50;;;12.79;36.12
69971;BME280;57301;50.328;8.542;2023-04-26T10:36:18;98661.91;;;12.51;35.93
69971;BME280;57301;50.328;8.542;2023-04-26T10:39:17;98659.97;;;12.27;37.94
69971;BME280;57301;50.328;8.542;2023-04-26T10:41:45;98649.00;;;11.35;37.81
69971;BME280;57301;50.328;8.542;2023-04-26T10:47:01;98640.50;;;10.95;37.67
69971;BME280;57301;50.328;8.542;2023-04-26T10:49:42;98648.25;;;12.20;39.15
69971;BME280;57301;50.328;8.542;2023-04-26T10:52:12;98638.59;;;12.78;35.24
69971;BME280;57301;50.328;8.542;2023-04-26T10:54:49;98631.41;;;12.95;33.70
69971;BME280;57301;50.328;8.542;2023-04-26T10:57:17;98638.78;;;13.09;33.81
69971;BME280;57301;50.328;8.542;2023-04-26T11:05:50;98634.47;;;12.49;36.42
69971;BME280;57301;50.328;8.542;2023-04-26T11:08:27;98635.78;;;12.96;36.20
69971;BME280;57301;50.328;8.542;2023-04-26T11:10:57;98625.38;;;12.93;35.18
69971;BME280;57301;50.328;8.542;2023-04-26T11:13:24;98613.69;;;13.42;34.68
69971;BME280;57301;50.328;8.542;2023-04-26T11:15:59;98631.59;;;13.66;35.01
69971;BME280;57301;50.328;8.542;2023-04-26T11:18:30;98636.31;;;14.20;34.54
69971;BME280;57301;50.328;8.542;2023-04-26T11:20:57;98614.63;;;14.38;35.38
69971;BME280;57301;50.328;8.542;2023-04-26T11:23:25;98620.88;;;14.30;32.48
69971;BME280;57301;50.328;8.542;2023-04-26T11:25:52;98619.91;;;15.08;34.03
69971;BME280;57301;50.328;8.542;2023-04-26T11:28:20;98616.88;;;15.11;33.26
69971;BME280;57301;50.328;8.542;2023-04-26T11:30:48;98614.66;;;15.15;32.36
69971;BME280;57301;50.328;8.542;2023-04-26T11:33:17;98605.53;;;14.47;33.69
69971;BME280;57301;50.328;8.542;2023-04-26T11:35:51;98607.53;;;14.45;34.06
69971;BME280;57301;50.328;8.542;2023-04-26T11:38:22;98609.50;;;13.48;35.25
69971;BME280;57301;50.328;8.542;2023-04-26T11:40:56;98608.94;;;12.55;35.62
69971;BME280;57301;50.328;8.542;2023-04-26T11:43:36;98606.28;;;13.77;34.31
69971;BME280;57301;50.328;8.542;2023-04-26T11:46:04;98607.97;;;13.78;36.21
69971;BME280;57301;50.328;8.542;2023-04-26T11:48:34;98603.03;;;13.26;37.90
69971;BME280;57301;50.328;8.542;2023-04-26T11:51:05;98609.03;;;13.36;37.86
69971;BME280;57301;50.328;8.542;2023-04-26T11:53:42;98607.69;;;13.57;36.15
69971;BME280;57301;50.328;8.542;2023-04-26T11:56:16;98611.66;;;14.24;44.23
69971;BME280;57301;50.328;8.542;2023-04-26T11:58:49;98608.22;;;15.01;38.33
69971;BME280;57301;50.328;8.542;2023-04-26T12:01:25;98593.84;;;14.94;38.13
69971;BME280;57301;50.328;8.542;2023-04-26T12:03:54;98590.63;;;14.98;37.74
69971;BME280;57301;50.328;8.542;2023-04-26T12:09:00;98594.41;;;15.65;33.67
69971;BME280;57301;50.328;8.542;2023-04-26T12:11:28;98600.78;;;14.57;35.64
69971;BME280;57301;50.328;8.542;2023-04-26T12:13:57;98592.22;;;15.68;32.48
69971;BME280;57301;50.328;8.542;2023-04-26T12:16:23;98587.66;;;14.93;33.11
69971;BME280;57301;50.328;8.542;2023-04-26T12:18:53;98585.94;;;15.15;31.86
69971;BME280;57301;50.328;8.542;2023-04-26T12:21:20;98583.78;;;15.33;32.94
69971;BME280;57301;50.328;8.542;2023-04-26T12:23:47;98583.50;;;15.66;32.59
69971;BME280;57301;50.328;8.542;2023-04-26T12:26:14;98586.09;;;16.19;32.38
69971;BME280;57301;50.328;8.542;2023-04-26T12:28:41;98587.94;;;15.89;32.74
69971;BME280;57301;50.328;8.542;2023-04-26T12:31:08;98580.22;;;15.56;31.60
69971;BME280;57301;50.328;8.542;2023-04-26T12:33:35;98587.06;;;13.65;33.37
69971;BME280;57301;50.328;8.542;2023-04-26T12:36:09;98584.25;;;14.06;34.76
69971;BME280;57301;50.328;8.542;2023-04-26T12:38:38;98581.09;;;15.33;34.87
69971;BME280;57301;50.328;8.542;2023-04-26T12:41:05;98578.72;;;15.53;33.43
69971;BME280;57301;50.328;8.542;2023-04-26T12:43:31;98583.31;;;16.27;33.90
69971;BME280;57301;50.328;8.542;2023-04-26T12:45:58;98572.25;;;15.10;32.32
69971;BME280;57301;50.328;8.542;2023-04-26T12:48:25;98576.41;;;14.90;33.01
69971;BME280;57301;50.328;8.542;2023-04-26T12:50:52;98574.13;;;15.24;32.63
69971;BME280;57301;50.328;8.542;2023-04-26T12:53:18;98574.34;;;15.52;32.62
69971;BME280;57301;50.328;8.542;2023-04-26T12:55:45;98572.56;;;15.30;32.96
69971;BME280;57301;50.328;8.542;2023-04-26T12:58:11;98576.19;;;15.22;34.41
69971;BME280;57301;50.328;8.542;2023-04-26T13:00:38;98579.84;;;15.21;35.41
69971;BME280;57301;50.328;8.542;2023-04-26T13:03:05;98577.72;;;16.13;33.97
69971;BME280;57301;50.328;8.542;2023-04-26T13:05:32;98579.63;;;15.98;33.81
69971;BME280;57301;50.328;8.542;2023-04-26T13:07:59;98576.28;;;15.67;33.69
69971;BME280;57301;50.328;8.542;2023-04-26T13:10:27;98585.00;;;16.64;32.89
69971;BME280;57301;50.328;8.542;2023-04-26T13:12:54;98576.00;;;17.42;36.36
69971;BME280;57301;50.328;8.542;2023-04-26T13:15:21;98580.47;;;17.85;34.28
69971;BME280;57301;50.328;8.542;2023-04-26T13:17:49;98581.63;;;18.04;29.11
69971;BME280;57301;50.328;8.542;2023-04-26T13:20:16;98571.00;;;19.38;34.23
69971;BME280;57301;50.328;8.542;2023-04-26T13:22:42;98579.72;;;17.97;33.18